Time;durP1;ratioP1;P1;durP2;ratioP2;P2;SDS_P1;SDS_P2;PMS_P1;PMS_P2;Temp;Humidity;BMP_temperature;BMP_pressure;BME280_temperature;BME280_humidity;BME280_pressure;Samples;Min_cycle;Max_cycle;Signal;HPM_P1;HPM_P2
2020/12/20 00:01:44;;;;;;;50.85;20.50;;;;;;;3.61;72.61;94868.66;5011405;28;20030;-66
2020/12/20 00:04:10;;;;;;;51.65;22.10;;;;;;;3.63;72.54;94869.22;5012759;28;20034;-67
2020/12/20 00:06:41;;;;;;;51.47;21.50;;;;;;;3.63;72.63;94871.06;5012758;28;20327;-66
2020/12/20 00:09:21;;;;;;;53.55;21.30;;;;;;;3.67;72.39;94867.69;5012569;28;20637;-67
2020/12/20 00:11:48;;;;;;;52.25;20.88;;;;;;;3.69;72.33;94862.97;5005939;28;20025;-66
2020/12/20 00:14:26;;;;;;;48.72;21.48;;;;;;;3.70;72.41;94861.13;5012453;28;20025;-67
2020/12/20 00:16:54;;;;;;;52.17;22.05;;;;;;;3.72;72.26;94862.47;5011219;28;20049;-66
2020/12/20 00:19:19;;;;;;;44.78;20.92;;;;;;;3.75;72.34;94861.19;5011213;28;20030;-66
2020/12/20 00:21:44;;;;;;;46.38;19.63;;;;;;;3.79;71.80;94863.09;5011102;28;20551;-66
2020/12/20 00:24:11;;;;;;;37.88;18.05;;;;;;;3.77;70.85;94869.66;5012518;28;20038;-67
2020/12/20 00:26:36;;;;;;;48.75;21.65;;;;;;;3.74;70.90;94873.56;5012228;28;20029;-67
2020/12/20 00:29:04;;;;;;;48.40;19.58;;;;;;;3.70;71.43;94875.09;5011635;28;20022;-66
2020/12/20 00:31:30;;;;;;;50.60;19.80;;;;;;;3.63;72.07;94877.13;5010691;28;20025;-66
2020/12/20 00:33:56;;;;;;;44.40;19.15;;;;;;;3.62;71.59;94872.88;5012269;28;20339;-66
2020/12/20 00:36:21;;;;;;;47.92;20.77;;;;;;;3.58;71.94;94869.16;5012081;28;20036;-66
2020/12/20 00:38:46;;;;;;;43.05;20.23;;;;;;;3.61;71.87;94873.94;5011636;28;20034;-68
2020/12/20 00:41:12;;;;;;;47.17;19.98;;;;;;;3.56;72.21;94872.03;5011883;28;20088;-68
2020/12/20 00:43:37;;;;;;;44.17;18.48;;;;;;;3.54;72.56;94868.03;5010056;28;20411;-69
2020/12/20 00:46:03;;;;;;;52.90;20.65;;;;;;;3.53;72.60;94863.81;5011737;28;20477;-68
2020/12/20 00:48:28;;;;;;;50.90;20.45;;;;;;;3.47;72.49;94870.06;5011662;28;20026;-68
2020/12/20 00:50:54;;;;;;;52.58;21.77;;;;;;;3.48;72.67;94872.47;5010583;28;20495;-68
2020/12/20 00:53:19;;;;;;;45.55;20.33;;;;;;;3.49;73.18;94873.25;5010176;28;20504;-68
2020/12/20 00:55:48;;;;;;;47.85;20.20;;;;;;;3.52;72.89;94870.13;5009970;28;20032;-69
2020/12/20 00:58:14;;;;;;;52.13;20.23;;;;;;;3.52;72.99;94868.31;5011736;28;20167;-68
2020/12/20 01:00:39;;;;;;;57.83;21.08;;;;;;;3.51;72.88;94858.78;5010251;28;20532;-68
2020/12/20 01:03:04;;;;;;;52.45;20.85;;;;;;;3.53;72.85;94866.47;5011258;28;20033;-68
2020/12/20 01:05:30;;;;;;;55.33;22.23;;;;;;;3.50;73.08;94861.66;5011381;28;20040;-68
2020/12/20 01:07:55;;;;;;;59.60;23.15;;;;;;;3.49;73.45;94862.72;5011397;28;20121;-68
2020/12/20 01:10:21;;;;;;;58.88;22.25;;;;;;;3.44;73.54;94860.81;5011083;28;20468;-68
2020/12/20 01:12:46;;;;;;;59.28;22.50;;;;;;;3.38;73.80;94854.66;5011393;28;20382;-68
2020/12/20 01:15:11;;;;;;;49.38;20.77;;;;;;;3.35;73.95;94855.16;5011107;28;20111;-68
2020/12/20 01:17:37;;;;;;;60.28;21.50;;;;;;;3.29;74.05;94850.84;5011325;28;20109;-68
2020/12/20 01:20:03;;;;;;;51.97;20.65;;;;;;;3.27;74.09;94846.88;5010734;28;20033;-69
2020/12/20 01:22:30;;;;;;;43.78;18.63;;;;;;;3.30;74.35;94847.19;5011030;28;20050;-68
2020/12/20 01:24:56;;;;;;;44.13;19.50;;;;;;;3.34;74.22;94847.50;5011106;28;20064;-68
2020/12/20 01:27:22;;;;;;;34.17;16.52;;;;;;;3.40;73.61;94844.69;5009666;28;20501;-68
2020/12/20 01:29:47;;;;;;;47.80;18.50;;;;;;;3.44;73.67;94846.81;5009575;28;20030;-68
2020/12/20 01:32:16;;;;;;;43.28;20.05;;;;;;;3.48;73.63;94847.94;5009951;28;20117;-68
2020/12/20 01:34:44;;;;;;;41.65;16.85;;;;;;;3.48;73.07;94850.56;5011208;28;20026;-68
2020/12/20 01:37:09;;;;;;;43.92;16.88;;;;;;;3.40;72.96;94849.97;5010607;28;20030;-68
2020/12/20 01:39:35;;;;;;;42.45;18.70;;;;;;;3.33;73.08;94845.88;5010914;28;20022;-68
2020/12/20 01:42:00;;;;;;;44.78;17.70;;;;;;;3.36;73.09;94840.94;5010539;28;20104;-68
2020/12/20 01:44:26;;;;;;;44.95;20.17;;;;;;;3.41;73.25;94837.56;5009593;28;20029;-68
2020/12/20 01:46:54;;;;;;;48.33;20.02;;;;;;;3.49;73.17;94841.63;5008694;28;20058;-68
2020/12/20 01:49:20;;;;;;;39.25;18.45;;;;;;;3.55;72.72;94838.81;5009128;28;20092;-68
2020/12/20 01:51:47;;;;;;;49.03;22.48;;;;;;;3.56;72.83;94844.88;5009986;28;20041;-67
2020/12/20 01:54:13;;;;;;;44.15;19.70;;;;;;;3.59;72.45;94841.75;5008553;28;20714;-67
2020/12/20 01:56:38;;;;;;;44.10;19.42;;;;;;;3.60;72.52;94848.59;5010129;28;20117;-67
2020/12/20 01:59:04;;;;;;;46.88;20.67;;;;;;;3.60;72.35;94846.78;5008777;28;20464;-67
2020/12/20 02:01:30;;;;;;;49.30;21.88;;;;;;;3.63;72.22;94850.78;5010451;28;20404;-67
2020/12/20 02:03:55;;;;;;;52.05;19.80;;;;;;;3.65;72.12;94848.69;5010626;28;20065;-67
2020/12/20 02:06:21;;;;;;;49.42;19.50;;;;;;;3.67;72.03;94841.31;5008862;28;20064;-67
2020/12/20 02:08:46;;;;;;;46.60;19.55;;;;;;;3.66;72.29;94845.00;5009758;28;20045;-67
2020/12/20 02:11:15;;;;;;;51.28;21.58;;;;;;;3.69;72.05;94839.25;5010320;28;20033;-67
2020/12/20 02:13:43;;;;;;;53.28;21.35;;;;;;;3.72;71.93;94849.28;5010510;28;20065;-67
2020/12/20 02:16:08;;;;;;;48.25;19.42;;;;;;;3.71;71.97;94844.28;5008924;28;20032;-67
2020/12/20 02:18:34;;;;;;;46.05;20.50;;;;;;;3.69;71.97;94846.38;5010437;28;20030;-67
2020/12/20 02:20:59;;;;;;;46.30;20.63;;;;;;;3.70;71.91;94840.03;5010227;28;20022;-67
2020/12/20 02:23:25;;;;;;;51.63;21.45;;;;;;;3.70;71.97;94838.19;5010162;28;20505;-67
2020/12/20 02:25:51;;;;;;;54.70;21.70;;;;;;;3.70;72.00;94846.09;5010339;28;20153;-67
2020/12/20 02:28:18;;;;;;;48.17;21.17;;;;;;;3.71;71.52;94847.69;5008980;28;20030;-67
2020/12/20 02:30:44;;;;;;;53.67;22.10;;;;;;;3.68;71.98;94840.28;5010136;28;20470;-67
2020/12/20 02:33:09;;;;;;;50.58;20.77;;;;;;;3.69;71.79;94841.88;5010331;28;20046;-67
2020/12/20 02:35:35;;;;;;;47.42;20.13;;;;;;;3.69;71.75;94841.88;5009969;28;20030;-68
2020/12/20 02:38:00;;;;;;;54.22;20.02;;;;;;;3.68;71.80;94848.19;5008958;28;20113;-67
2020/12/20 02:40:28;;;;;;;51.63;21.58;;;;;;;3.69;72.16;94836.59;5009988;28;20422;-68
2020/12/20 02:42:53;;;;;;;48.05;20.27;;;;;;;3.68;72.00;94837.63;5009960;28;20049;-68
2020/12/20 02:45:19;;;;;;;41.20;20.35;;;;;;;3.65;71.74;94832.88;5010401;28;20041;-68
2020/12/20 02:47:44;;;;;;;51.25;20.80;;;;;;;3.65;71.79;94835.50;5010132;28;20034;-67
2020/12/20 02:50:10;;;;;;;55.78;22.15;;;;;;;3.65;71.97;94840.78;5010043;28;20057;-68
2020/12/20 02:52:35;;;;;;;48.17;19.08;;;;;;;3.66;71.92;94839.72;5009951;28;20037;-68
2020/12/20 02:55:01;;;;;;;49.10;21.05;;;;;;;3.64;71.73;94841.00;5008775;28;20121;-68
2020/12/20 02:57:26;;;;;;;44.67;19.15;;;;;;;3.66;71.81;94838.94;5010259;28;20071;-68
2020/12/20 02:59:51;;;;;;;44.92;21.13;;;;;;;3.67;71.62;94835.25;5010023;28;20559;-68
2020/12/20 03:02:17;;;;;;;51.58;21.45;;;;;;;3.69;71.56;94838.44;5008778;28;20449;-69
2020/12/20 03:04:42;;;;;;;52.63;21.15;;;;;;;3.68;71.70;94840.28;5009734;28;20048;-68
2020/12/20 03:07:08;;;;;;;47.72;21.13;;;;;;;3.67;71.60;94841.31;5009975;28;20040;-68
2020/12/20 03:09:33;;;;;;;49.88;21.38;;;;;;;3.69;71.36;94847.16;5008829;28;20113;-68
2020/12/20 03:11:58;;;;;;;54.20;23.75;;;;;;;3.67;71.44;94830.00;5009915;28;20080;-67
2020/12/20 03:14:24;;;;;;;45.45;21.05;;;;;;;3.61;71.64;94829.13;5012510;28;20479;-67
2020/12/20 03:16:49;;;;;;;54.60;23.67;;;;;;;3.58;71.76;94832.25;5012307;28;20052;-68
2020/12/20 03:19:15;;;;;;;56.90;23.75;;;;;;;3.57;71.82;94834.09;5012247;28;20474;-68
2020/12/20 03:21:40;;;;;;;69.00;24.25;;;;;;;3.56;71.86;94829.03;5012289;28;20041;-68
2020/12/20 03:24:06;;;;;;;55.33;22.17;;;;;;;3.56;71.96;94834.31;5012030;28;20049;-68
2020/12/20 03:26:31;;;;;;;56.88;22.17;;;;;;;3.52;71.93;94825.31;5013582;28;20030;-68
2020/12/20 03:28:56;;;;;;;60.08;22.10;;;;;;;3.47;72.03;94827.91;5011988;28;20029;-69
2020/12/20 03:31:25;;;;;;;51.13;21.65;;;;;;;3.46;72.22;94835.00;5013534;28;20026;-69
2020/12/20 03:33:50;;;;;;;60.83;21.08;;;;;;;3.41;72.52;94827.03;5013148;28;20092;-69
2020/12/20 03:36:16;;;;;;;50.80;22.40;;;;;;;3.37;72.64;94826.72;5013481;28;20468;-68
2020/12/20 03:38:41;;;;;;;55.65;20.70;;;;;;;3.34;72.59;94827.22;5013200;28;20022;-68
2020/12/20 03:41:07;;;;;;;55.78;20.67;;;;;;;3.31;73.15;94832.16;5013088;28;20062;-68
2020/12/20 03:43:32;;;;;;;60.72;23.63;;;;;;;3.23;73.41;94833.38;5011783;28;20046;-68
2020/12/20 03:45:59;;;;;;;58.75;21.17;;;;;;;3.09;73.90;94832.13;5013454;28;20456;-68
2020/12/20 03:48:25;;;;;;;75.15;22.20;;;;;;;3.03;74.54;94825.97;5013097;28;20045;-68
2020/12/20 03:50:50;;;;;;;71.95;20.60;;;;;;;2.97;74.81;94830.41;5012945;28;20026;-69
2020/12/20 03:53:16;;;;;;;63.65;22.50;;;;;;;2.93;75.08;94831.09;5012781;28;20048;-68
2020/12/20 03:55:41;;;;;;;56.78;22.15;;;;;;;2.92;74.94;94826.88;5012992;28;20025;-68
2020/12/20 03:58:06;;;;;;;61.95;22.20;;;;;;;2.90;75.40;94816.59;5012835;28;20021;-68
2020/12/20 04:00:32;;;;;;;53.28;22.27;;;;;;;2.85;75.21;94828.88;5012579;28;20371;-68
2020/12/20 04:02:57;;;;;;;80.82;23.60;;;;;;;2.78;75.81;94823.78;5011371;28;20044;-68
2020/12/20 04:05:23;;;;;;;75.03;26.20;;;;;;;2.80;75.96;94829.59;5011326;28;20029;-69
2020/12/20 04:07:48;;;;;;;87.45;24.63;;;;;;;2.82;75.86;94830.16;5012772;28;20104;-67
2020/12/20 04:10:15;;;;;;;78.05;26.08;;;;;;;2.82;75.69;94835.41;5012404;28;20441;-68
2020/12/20 04:12:40;;;;;;;84.43;25.25;;;;;;;2.80;76.16;94832.22;5011267;28;20096;-67
2020/12/20 04:15:06;;;;;;;96.20;25.77;;;;;;;2.79;76.14;94838.53;5012491;28;20034;-67
2020/12/20 04:17:31;;;;;;;75.75;26.05;;;;;;;2.78;76.12;94842.19;5012406;28;20029;-68
2020/12/20 04:19:57;;;;;;;73.63;27.80;;;;;;;2.80;76.33;94833.03;5011317;28;20064;-68
2020/12/20 04:22:22;;;;;;;87.57;26.40;;;;;;;2.77;75.93;94841.41;5010762;28;20058;-68
2020/12/20 04:24:48;;;;;;;71.50;25.27;;;;;;;2.73;76.54;94831.59;5009988;28;20117;-68
2020/12/20 04:27:13;;;;;;;112.10;25.30;;;;;;;2.73;76.70;94842.94;5012328;28;20029;-68
2020/12/20 04:29:39;;;;;;;92.93;27.38;;;;;;;2.76;76.81;94852.19;5012018;28;20036;-68
2020/12/20 04:32:05;;;;;;;85.80;25.63;;;;;;;2.79;76.67;94841.97;5010926;28;20054;-68
2020/12/20 04:34:31;;;;;;;91.38;24.35;;;;;;;2.86;76.70;94846.28;5010637;28;20038;-68
2020/12/20 04:36:56;;;;;;;80.63;23.88;;;;;;;2.86;76.43;94852.34;5010947;28;20026;-68
2020/12/20 04:39:22;;;;;;;100.35;26.20;;;;;;;2.82;76.44;94840.69;5012438;28;20551;-68
2020/12/20 04:41:47;;;;;;;85.95;25.13;;;;;;;2.81;76.51;94845.16;5011600;28;20022;-68
2020/12/20 04:44:13;;;;;;;99.38;24.33;;;;;;;2.83;76.68;94847.56;5012073;28;20084;-68
2020/12/20 04:46:39;;;;;;;73.63;24.00;;;;;;;2.82;76.64;94840.69;5011573;28;20104;-68
2020/12/20 04:49:06;;;;;;;81.82;22.55;;;;;;;2.83;76.69;94834.41;5010516;28;20052;-67
2020/12/20 04:51:33;;;;;;;87.93;22.60;;;;;;;2.85;76.50;94836.75;5010306;28;20100;-69
2020/12/20 04:54:01;;;;;;;77.13;23.80;;;;;;;2.86;76.79;94841.00;5011834;28;20117;-67
2020/12/20 04:56:28;;;;;;;92.15;24.52;;;;;;;2.81;76.65;94833.84;5010408;28;20033;-67
2020/12/20 04:58:56;;;;;;;90.05;23.48;;;;;;;2.85;76.74;94836.75;5011406;28;20091;-67
2020/12/20 05:01:22;;;;;;;88.60;24.23;;;;;;;2.90;76.81;94837.66;5011690;28;20026;-67
2020/12/20 05:03:48;;;;;;;82.72;25.70;;;;;;;2.93;76.74;94841.63;5011223;28;20024;-67
2020/12/20 05:06:15;;;;;;;67.75;24.45;;;;;;;2.98;76.67;94849.63;5010208;28;20113;-67
2020/12/20 05:08:41;;;;;;;57.08;24.45;;;;;;;3.09;76.29;94840.03;5011254;28;20053;-67
2020/12/20 05:11:06;;;;;;;64.32;23.52;;;;;;;3.12;75.87;94835.06;5011214;28;20065;-67
2020/12/20 05:13:41;;;;;;;63.13;23.58;;;;;;;3.18;75.91;94854.38;5011443;28;20025;-67
2020/12/20 05:16:07;;;;;;;83.70;24.83;;;;;;;3.22;75.59;94845.75;5009831;28;20052;-67
2020/12/20 05:18:32;;;;;;;78.50;23.42;;;;;;;3.23;75.44;94849.19;5011322;28;20029;-67
2020/12/20 05:20:58;;;;;;;80.05;25.15;;;;;;;3.24;75.31;94850.78;5009863;28;20387;-67
2020/12/20 05:23:29;;;;;;;107.93;25.25;;;;;;;3.21;75.12;94857.31;5009880;28;20026;-67
2020/12/20 05:26:04;;;;;;;74.40;24.55;;;;;;;3.18;75.58;94849.13;5009664;28;20397;-67
2020/12/20 05:28:30;;;;;;;61.50;25.05;;;;;;;3.16;75.81;94856.47;5009969;28;20026;-67
2020/12/20 05:30:55;;;;;;;75.68;23.98;;;;;;;3.16;76.25;94852.00;5009457;28;20025;-67
2020/12/20 05:33:29;;;;;;;60.25;24.80;;;;;;;3.24;75.54;94855.25;5009673;28;20037;-67
2020/12/20 05:36:01;;;;;;;58.72;23.27;;;;;;;3.27;75.59;94852.91;5010441;28;20038;-67
2020/12/20 05:38:27;;;;;;;63.63;21.33;;;;;;;3.32;75.01;94860.13;5010765;28;20041;-67
2020/12/20 05:40:52;;;;;;;56.78;21.83;;;;;;;3.37;74.53;94862.81;5010571;28;20030;-68
2020/12/20 05:43:23;;;;;;;56.90;22.40;;;;;;;3.39;74.10;94855.47;5010640;28;20054;-67
2020/12/20 05:45:49;;;;;;;50.80;20.75;;;;;;;3.41;74.19;94854.16;5010758;28;20026;-67
2020/12/20 05:48:18;;;;;;;60.47;22.48;;;;;;;3.47;73.88;94856.88;5004066;28;20025;-67
2020/12/20 05:50:58;;;;;;;55.70;23.50;;;;;;;3.44;73.22;94868.72;5010612;28;20038;-67
2020/12/20 05:53:34;;;;;;;48.08;19.58;;;;;;;3.56;72.84;94881.78;5006015;28;20033;-67
2020/12/20 05:56:01;;;;;;;41.03;17.77;;;;;;;3.59;72.21;94878.66;5009209;28;20431;-67
2020/12/20 05:58:32;;;;;;;45.20;17.48;;;;;;;3.61;72.01;94877.38;5009278;28;20051;-68
2020/12/20 06:00:59;;;;;;;41.95;18.15;;;;;;;3.57;71.67;94876.25;5008987;28;20026;-68
2020/12/20 06:03:25;;;;;;;53.70;19.30;;;;;;;3.52;71.60;94880.66;5010467;28;20469;-68
2020/12/20 06:05:51;;;;;;;49.05;18.77;;;;;;;3.51;71.52;94876.44;5009044;28;20022;-68
2020/12/20 06:08:19;;;;;;;48.08;19.52;;;;;;;3.48;72.48;94885.66;5008960;28;20424;-68
2020/12/20 06:10:52;;;;;;;53.55;19.63;;;;;;;3.51;72.45;94889.63;5010367;28;20077;-68
2020/12/20 06:13:20;;;;;;;51.83;21.23;;;;;;;3.59;73.16;94886.56;5010340;28;20104;-68
2020/12/20 06:15:53;;;;;;;60.25;21.50;;;;;;;3.64;72.68;94884.00;5002737;28;20029;-68
2020/12/20 06:18:24;;;;;;;60.95;21.73;;;;;;;3.63;72.89;94887.69;5010307;28;20592;-68
2020/12/20 06:20:59;;;;;;;57.88;23.30;;;;;;;3.66;72.99;94887.19;5010333;28;20348;-68
2020/12/20 06:23:29;;;;;;;63.25;23.83;;;;;;;3.66;72.99;94889.03;5010209;28;20409;-67
2020/12/20 06:25:56;;;;;;;64.28;24.33;;;;;;;3.66;73.26;94887.19;5010182;28;20025;-67
2020/12/20 06:28:27;;;;;;;65.90;23.50;;;;;;;3.69;73.14;94891.19;5008833;28;20037;-67
2020/12/20 06:30:54;;;;;;;59.22;23.90;;;;;;;3.72;73.11;94890.69;5008768;28;20110;-67
2020/12/20 06:33:34;;;;;;;67.25;23.10;;;;;;;3.72;73.22;94891.47;5009860;28;20497;-66
2020/12/20 06:36:08;;;;;;;59.92;20.08;;;;;;;3.74;73.16;94893.88;5010068;28;20022;-67
2020/12/20 06:38:34;;;;;;;54.38;22.25;;;;;;;3.76;72.85;94889.94;5010286;28;20410;-68
2020/12/20 06:41:00;;;;;;;56.50;21.70;;;;;;;3.75;72.76;94898.13;5010136;28;20029;-69
2020/12/20 06:43:31;;;;;;;52.63;22.02;;;;;;;3.78;72.88;94900.25;5008341;28;20081;-69
2020/12/20 06:45:56;;;;;;;62.13;20.70;;;;;;;3.84;72.58;94899.28;5008779;28;20096;-69
2020/12/20 06:48:36;;;;;;;44.60;18.15;;;;;;;3.84;72.33;94899.28;5009427;28;20025;-68
2020/12/20 06:51:06;;;;;;;58.17;18.55;;;;;;;3.86;72.14;94906.94;5013823;28;20473;-68
2020/12/20 06:53:52;;;;;;;50.28;18.85;;;;;;;3.88;72.13;94899.59;5013880;28;20153;-68
2020/12/20 06:56:24;;;;;;;41.83;17.58;;;;;;;3.90;72.19;94903.56;5013624;28;20034;-67
2020/12/20 06:58:52;;;;;;;72.03;26.92;;;;;;;3.93;71.78;94912.81;5012353;28;20029;-67
2020/12/20 07:01:40;;;;;;;76.32;32.80;;;;;;;3.96;72.16;94907.88;5013511;28;20037;-67
2020/12/20 07:04:12;;;;;;;65.25;28.17;;;;;;;3.96;72.27;94920.25;5013855;28;20045;-67
2020/12/20 07:06:38;;;;;;;78.10;31.38;;;;;;;3.97;72.27;94906.03;5012526;28;20494;-68
2020/12/20 07:09:07;;;;;;;68.93;26.35;;;;;;;3.97;72.55;94913.97;5012111;28;20054;-68
2020/12/20 07:11:41;;;;;;;60.88;22.58;;;;;;;4.01;72.25;94912.44;5013324;28;20028;-68
2020/12/20 07:14:24;;;;;;;59.65;22.70;;;;;;;4.02;72.09;94914.78;5013398;28;20095;-68
2020/12/20 07:16:53;;;;;;;61.20;23.48;;;;;;;4.02;71.86;94917.44;5013293;28;20033;-68
2020/12/20 07:19:25;;;;;;;62.38;23.55;;;;;;;4.06;71.84;94917.75;5013483;28;20112;-68
2020/12/20 07:21:53;;;;;;;;;;;;;;;4.08;71.76;94920.94;5013841;28;20034;-68
2020/12/20 07:24:19;;;;;;;58.53;22.45;;;;;;;4.04;71.84;94914.56;5011963;28;20380;-68
2020/12/20 07:26:47;;;;;;;64.22;23.80;;;;;;;4.04;71.94;94919.84;5011959;28;20079;-67
2020/12/20 07:29:13;;;;;;;66.28;24.50;;;;;;;4.05;72.04;94921.44;5011674;28;20025;-67
2020/12/20 07:31:39;;;;;;;62.05;23.58;;;;;;;4.04;72.19;94921.69;5011894;28;20029;-68
2020/12/20 07:34:06;;;;;;;59.60;23.35;;;;;;;4.10;72.06;94913.56;5013126;28;20405;-67
2020/12/20 07:36:32;;;;;;;59.00;21.48;;;;;;;4.13;71.65;94920.19;5011921;28;20026;-67
2020/12/20 07:38:58;;;;;;;63.22;23.15;;;;;;;4.14;71.90;94919.16;5013147;28;20405;-68
2020/12/20 07:41:24;;;;;;;59.08;23.33;;;;;;;4.18;71.45;94917.63;5012942;28;20026;-67
2020/12/20 07:43:51;;;;;;;63.33;23.23;;;;;;;4.18;71.23;94915.00;5011485;28;20385;-68
2020/12/20 07:46:18;;;;;;;59.83;24.30;;;;;;;4.24;71.20;94923.78;5011212;28;20034;-68
2020/12/20 07:48:43;;;;;;;76.03;24.15;;;;;;;4.28;70.83;94924.88;5012577;28;20030;-67
2020/12/20 07:51:16;;;;;;;67.80;25.10;;;;;;;4.26;70.98;94922.47;5012694;28;20365;-68
2020/12/20 07:53:55;;;;;;;66.57;24.45;;;;;;;4.27;71.15;94917.97;5012618;28;20033;-68
2020/12/20 07:56:24;;;;;;;67.30;23.38;;;;;;;4.29;70.95;94926.44;5011343;28;20497;-68
2020/12/20 07:58:54;;;;;;;71.97;24.05;;;;;;;4.24;71.29;94915.84;5012292;28;20029;-68
2020/12/20 08:01:20;;;;;;;53.78;21.45;;;;;;;4.20;71.77;94918.19;5010993;28;20029;-67
2020/12/20 08:03:46;;;;;;;61.40;24.25;;;;;;;4.19;71.33;94917.38;5011209;28;20022;-67
2020/12/20 08:06:14;;;;;;;56.75;22.17;;;;;;;4.22;71.28;94916.09;5011334;28;20083;-68
2020/12/20 08:08:40;;;;;;;53.25;21.27;;;;;;;4.25;70.63;94920.06;5012863;28;20087;-67
2020/12/20 08:11:27;;;;;;;50.00;21.02;;;;;;;4.27;70.23;94913.50;5012670;28;20025;-67
2020/12/20 08:14:01;;;;;;;50.78;19.88;;;;;;;4.25;70.66;94920.84;5011247;28;20034;-67
2020/12/20 08:16:30;;;;;;;56.33;22.25;;;;;;;4.29;70.57;94918.53;5012415;28;20507;-67
2020/12/20 08:18:59;;;;;;;50.63;21.63;;;;;;;4.34;70.56;94926.53;5011185;28;21450;-67
2020/12/20 08:22:07;;;;;;;55.53;20.85;;;;;;;4.16;70.55;94919.72;5012376;28;20029;-64
2020/12/20 08:24:46;;;;;;;50.50;19.88;;;;;;;3.99;71.13;94920.56;5009302;28;20044;-63
2020/12/20 08:27:17;;;;;;;49.60;19.25;;;;;;;3.92;71.13;94922.59;5011394;28;20025;-67
2020/12/20 08:29:47;;;;;;;49.90;19.73;;;;;;;3.97;70.96;94924.50;5012636;28;20514;-67
2020/12/20 08:32:15;;;;;;;53.05;20.38;;;;;;;3.99;71.46;94922.44;5012477;28;20500;-67
2020/12/20 08:34:40;;;;;;;51.47;21.05;;;;;;;4.01;71.91;94920.34;5011198;28;20036;-67
2020/12/20 08:37:18;;;;;;;50.60;20.65;;;;;;;4.10;71.96;94918.06;5012384;28;20481;-67
2020/12/20 08:39:43;;;;;;;49.88;19.88;;;;;;;4.16;71.51;94925.00;5012699;28;20079;-67
2020/12/20 08:42:11;;;;;;;50.72;20.35;;;;;;;4.22;71.27;94911.59;5012217;28;20497;-67
2020/12/20 08:45:03;;;;;;;48.03;20.88;;;;;;;4.27;71.11;94920.63;5011997;28;20099;-67
2020/12/20 08:47:35;;;;;;;47.33;18.83;;;;;;;4.30;70.67;94923.56;5006832;28;20108;-67
2020/12/20 08:50:00;;;;;;;53.83;22.20;;;;;;;4.34;70.41;94913.31;5010492;28;20030;-67
2020/12/20 08:52:27;;;;;;;44.78;20.30;;;;;;;4.35;70.53;94920.19;5010763;28;20087;-67
2020/12/20 08:55:00;;;;;;;53.65;20.95;;;;;;;4.34;70.94;94914.13;5011578;28;20071;-67
2020/12/20 08:57:31;;;;;;;54.60;21.27;;;;;;;4.39;70.50;94916.78;5010613;28;20030;-67
2020/12/20 09:00:13;;;;;;;49.10;20.88;;;;;;;4.47;70.09;94912.91;5011195;28;20057;-67
2020/12/20 09:02:39;;;;;;;49.35;21.98;;;;;;;4.49;69.99;94910.81;5006208;28;20026;-67
2020/12/20 09:05:05;;;;;;;52.63;19.00;;;;;;;4.50;70.00;94907.16;5011643;28;20370;-67
2020/12/20 09:07:33;;;;;;;50.60;20.05;;;;;;;4.46;69.93;94910.50;5010336;28;20084;-67
2020/12/20 09:10:06;;;;;;;44.05;20.70;;;;;;;4.46;69.89;94910.50;5010092;28;22037;-67
2020/12/20 09:12:32;;;;;;;50.67;21.60;;;;;;;4.48;69.90;94909.25;5009185;28;20045;-66
2020/12/20 09:15:09;;;;;;;59.47;24.70;;;;;;;4.48;70.17;94911.88;5011101;28;20037;-67
2020/12/20 09:17:40;;;;;;;49.03;21.77;;;;;;;4.54;69.98;94905.59;5010438;28;20030;-67
2020/12/20 09:20:09;;;;;;;53.65;23.95;;;;;;;4.57;69.70;94906.94;5010673;28;20029;-67
2020/12/20 09:22:46;;;;;;;52.40;21.42;;;;;;;4.58;69.74;94909.34;5011057;28;20033;-67
2020/12/20 09:25:13;;;;;;;48.53;20.48;;;;;;;4.60;69.59;94901.97;5005854;28;20113;-67
2020/12/20 09:27:51;;;;;;;45.70;19.33;;;;;;;4.64;69.21;94902.28;5010910;28;20029;-67
2020/12/20 09:30:16;;;;;;;52.55;21.67;;;;;;;4.67;69.20;94901.75;5009609;28;20030;-67
2020/12/20 09:32:41;;;;;;;50.97;19.98;;;;;;;4.72;69.05;94893.09;5009808;28;20037;-67
2020/12/20 09:35:08;;;;;;;46.92;19.92;;;;;;;4.76;69.14;94899.47;5011157;28;20083;-67
2020/12/20 09:37:38;;;;;;;47.45;20.15;;;;;;;4.80;68.58;94904.00;5009827;28;20034;-67
2020/12/20 09:40:05;;;;;;;47.67;20.88;;;;;;;4.81;68.59;94902.16;5010850;28;20021;-67
2020/12/20 09:42:41;;;;;;;49.08;19.88;;;;;;;4.87;68.64;94906.44;5009441;28;20417;-67
2020/12/20 09:45:11;;;;;;;51.47;20.75;;;;;;;4.92;68.19;94901.19;5010899;28;20019;-67
2020/12/20 09:47:44;;;;;;;49.33;20.50;;;;;;;4.91;68.35;94896.16;5010894;28;20014;-67
2020/12/20 09:50:11;;;;;;;54.75;21.77;;;;;;;4.94;68.26;94888.50;5010749;28;20033;-67
2020/12/20 09:52:38;;;;;;;56.75;21.02;;;;;;;5.00;67.79;94890.16;5010797;28;20125;-67
2020/12/20 09:55:08;;;;;;;51.80;19.60;;;;;;;5.05;67.43;94888.59;5010690;28;20042;-67
2020/12/20 09:57:36;;;;;;;46.30;19.40;;;;;;;5.06;67.30;94891.00;5011025;28;20033;-67
2020/12/20 10:00:03;;;;;;;45.75;19.67;;;;;;;5.13;66.80;94882.84;5009619;28;20034;-68
2020/12/20 10:02:28;;;;;;;47.92;20.30;;;;;;;5.17;66.73;94883.94;5010522;28;20037;-67
2020/12/20 10:04:54;;;;;;;45.08;20.10;;;;;;;5.23;66.25;94885.56;5009287;28;20482;-67
2020/12/20 10:07:19;;;;;;;42.95;18.45;;;;;;;5.27;65.71;94891.13;5009326;28;20037;-67
2020/12/20 10:10:05;;;;;;;43.80;19.40;;;;;;;5.27;65.85;94886.66;5011714;28;20025;-68
2020/12/20 10:12:35;;;;;;;46.25;19.25;;;;;;;5.25;66.18;94880.84;5008853;28;20033;-67
2020/12/20 10:15:01;;;;;;;41.60;19.13;;;;;;;5.27;66.35;94884.03;5007798;28;20034;-67
2020/12/20 10:17:26;;;;;;;51.67;25.25;;;;;;;5.27;66.43;94878.75;4991624;28;20091;-67
2020/12/20 10:19:53;;;;;;;51.75;25.67;;;;;;;5.32;65.87;94873.47;5007977;28;20502;-67
2020/12/20 10:22:19;;;;;;;51.28;21.33;;;;;;;5.35;65.76;94875.63;5007839;28;20408;-68
2020/12/20 10:24:44;;;;;;;45.15;18.90;;;;;;;5.37;65.67;94873.53;5008538;28;20052;-67
2020/12/20 10:27:39;;;;;;;47.97;19.20;;;;;;;5.40;65.68;94878.28;5008221;28;20034;-68
2020/12/20 10:30:05;;;;;;;40.75;17.73;;;;;;;5.40;65.57;94862.41;5007372;28;20048;-67
2020/12/20 10:32:41;;;;;;;36.38;17.35;;;;;;;5.43;65.24;94859.28;4991349;28;20037;-68
2020/12/20 10:35:06;;;;;;;40.15;17.92;;;;;;;5.47;64.83;94861.41;5007927;28;20052;-68
2020/12/20 10:37:32;;;;;;;41.30;19.90;;;;;;;5.47;65.15;94862.19;5009377;28;20452;-68
2020/12/20 10:40:00;;;;;;;40.60;17.77;;;;;;;5.52;64.47;94866.72;5010041;28;20026;-68
2020/12/20 10:42:25;;;;;;;40.45;19.25;;;;;;;5.55;64.27;94863.56;5008495;28;20052;-67
2020/12/20 10:44:53;;;;;;;45.72;18.42;;;;;;;5.54;64.04;94859.34;5010013;28;20389;-68
2020/12/20 10:47:18;;;;;;;37.60;17.92;;;;;;;5.52;63.92;94858.78;5009416;28;20018;-68
2020/12/20 10:49:44;;;;;;;40.25;17.75;;;;;;;5.49;63.47;94865.38;5009919;28;20485;-68
2020/12/20 10:52:12;;;;;;;35.00;16.45;;;;;;;5.39;64.27;94863.50;5008048;28;20117;-68
2020/12/20 10:54:38;;;;;;;38.95;17.23;;;;;;;5.36;64.22;94861.34;5009626;28;20021;-68
2020/12/20 10:57:03;;;;;;;36.33;16.33;;;;;;;5.31;64.45;94857.84;5009521;28;20028;-68
2020/12/20 10:59:31;;;;;;;35.38;15.48;;;;;;;5.30;64.04;94862.34;5009713;28;20053;-68
2020/12/20 11:01:57;;;;;;;39.88;15.98;;;;;;;5.28;64.53;94853.88;5008199;28;20482;-67
2020/12/20 11:04:23;;;;;;;37.47;16.33;;;;;;;5.27;64.82;94849.66;5008001;28;20026;-68
2020/12/20 11:06:49;;;;;;;31.48;14.40;;;;;;;5.23;64.69;94856.47;5008088;28;20050;-67
2020/12/20 11:09:14;;;;;;;31.90;14.75;;;;;;;5.21;64.44;94848.84;5008153;28;20069;-68
2020/12/20 11:11:41;;;;;;;35.92;16.63;;;;;;;5.23;64.22;94851.19;5009548;28;20030;-68
2020/12/20 11:14:07;;;;;;;33.88;15.27;;;;;;;5.22;64.74;94841.69;5008385;28;20518;-67
2020/12/20 11:16:35;;;;;;;38.55;15.02;;;;;;;5.27;64.20;94851.50;5008937;28;20080;-68
2020/12/20 11:19:01;;;;;;;37.97;15.73;;;;;;;5.30;64.02;94841.22;5009689;28;20378;-67
2020/12/20 11:21:26;;;;;;;31.98;14.90;;;;;;;5.33;64.25;94850.47;5008055;28;20112;-68
2020/12/20 11:23:52;;;;;;;35.83;15.52;;;;;;;5.33;63.76;94846.00;5009592;28;20425;-68
2020/12/20 11:26:22;;;;;;;28.05;13.73;;;;;;;5.29;63.63;94850.22;5007482;28;20108;-68
2020/12/20 11:28:50;;;;;;;31.38;15.02;;;;;;;5.30;64.02;94851.78;5000325;28;20033;-68